createdAt,value
2024-01-12T00:00:13.937Z,28.2239
2024-01-12T00:01:17.158Z,28.2034
2024-01-12T00:02:20.391Z,28.2316
2024-01-12T00:03:23.572Z,28.1967
2024-01-12T00:04:28.210Z,28.1793
2024-01-12T00:05:30.071Z,28.1838
2024-01-12T00:06:33.309Z,28.2342
2024-01-12T00:07:36.365Z,28.2714
2024-01-12T00:08:39.675Z,28.2805
2024-01-12T00:09:42.785Z,28.2634
2024-01-12T00:10:46.034Z,28.2372
2024-01-12T00:11:49.303Z,28.2424
2024-01-12T00:12:52.423Z,28.2797
2024-01-12T00:13:55.631Z,28.2816
2024-01-12T00:14:58.881Z,28.3033
2024-01-12T00:16:02.053Z,28.3153
2024-01-12T00:17:05.260Z,28.3399
2024-01-12T00:18:08.534Z,28.3535
2024-01-12T00:19:11.675Z,28.3068
2024-01-12T00:20:14.914Z,28.2806
2024-01-12T00:21:18.097Z,28.2329
2024-01-12T00:22:21.287Z,28.1773
2024-01-12T00:23:24.509Z,28.1776
2024-01-12T00:24:27.695Z,28.1897
2024-01-12T00:25:30.911Z,28.2245
2024-01-12T00:26:34.336Z,28.2991
2024-01-12T00:27:37.316Z,28.2799
2024-01-12T00:28:40.527Z,28.2428
2024-01-12T00:29:43.843Z,28.2234
2024-01-12T00:30:46.967Z,28.2193
2024-01-12T00:31:50.157Z,28.2547
2024-01-12T00:32:53.477Z,28.2238
2024-01-12T00:33:57.574Z,28.1762
2024-01-12T00:34:59.778Z,28.2026
2024-01-12T00:36:03.022Z,28.2384
2024-01-12T00:37:06.211Z,28.2473
2024-01-12T00:38:09.412Z,28.2578
2024-01-12T00:39:12.631Z,28.2847
2024-01-12T00:40:15.830Z,28.2477
2024-01-12T00:41:19.065Z,28.2279
2024-01-12T00:42:22.269Z,28.2279
2024-01-12T00:43:25.491Z,28.2178
2024-01-12T00:44:28.688Z,28.1870
2024-01-12T00:45:31.890Z,28.1921
2024-01-12T00:46:35.103Z,28.1964
2024-01-12T00:47:38.434Z,28.2448
2024-01-12T00:48:41.594Z,28.2600
2024-01-12T00:49:44.859Z,28.2207
2024-01-12T00:50:47.958Z,28.1904
2024-01-12T00:51:51.140Z,28.1432
2024-01-12T00:52:54.377Z,28.1788
2024-01-12T00:53:57.603Z,28.2175
2024-01-12T00:55:00.780Z,28.2505
2024-01-12T00:56:03.968Z,28.2387
2024-01-12T00:57:07.206Z,28.1862
2024-01-12T00:58:10.396Z,28.1244
2024-01-12T00:59:13.610Z,28.1153
2024-01-12T01:00:16.802Z,28.2169
2024-01-12T01:01:20.047Z,28.2243
2024-01-12T01:02:23.277Z,28.2247
2024-01-12T01:03:26.530Z,28.2129
2024-01-12T01:04:29.644Z,28.1913
2024-01-12T01:05:32.937Z,28.2007
2024-01-12T01:06:36.115Z,28.1331
2024-01-12T01:07:39.274Z,28.1303
2024-01-12T01:08:42.572Z,28.0966
2024-01-12T01:09:45.694Z,28.1208
2024-01-12T01:10:48.981Z,28.2004
2024-01-12T01:11:52.118Z,28.2330
2024-01-12T01:12:55.329Z,28.2285
2024-01-12T01:13:58.549Z,28.1870
2024-01-12T01:15:01.890Z,28.2659
2024-01-12T01:16:04.968Z,28.2788
2024-01-12T01:17:08.165Z,28.2595
2024-01-12T01:18:11.468Z,28.1995
2024-01-12T01:19:14.637Z,28.1754
2024-01-12T01:20:17.918Z,28.2083
2024-01-12T01:21:21.016Z,28.2052
2024-01-12T01:22:24.214Z,28.2150
2024-01-12T01:23:27.422Z,28.1916
2024-01-12T01:24:30.790Z,28.1155
2024-01-12T01:25:33.828Z,28.0649
2024-01-12T01:26:37.084Z,28.0555
2024-01-12T01:27:40.257Z,28.0975
2024-01-12T01:28:43.464Z,28.0925
2024-01-12T01:29:46.737Z,28.1066
2024-01-12T01:30:50.009Z,28.0669
2024-01-12T01:31:53.080Z,28.0597
2024-01-12T01:32:56.362Z,28.0736
2024-01-12T01:33:59.652Z,28.0555
2024-01-12T01:35:02.716Z,28.0818
2024-01-12T01:36:05.965Z,28.0770
2024-01-12T01:37:09.130Z,28.0280
2024-01-12T01:38:12.358Z,28.0410
2024-01-12T01:39:15.632Z,28.0681
2024-01-12T01:40:18.782Z,28.1339
2024-01-12T01:41:22.013Z,28.0969
2024-01-12T01:42:26.014Z,28.1266
2024-01-12T01:43:28.397Z,28.1148
2024-01-12T01:44:31.625Z,28.1173
2024-01-12T01:45:34.837Z,28.1347
2024-01-12T01:46:38.026Z,28.1589
2024-01-12T01:47:41.290Z,28.1486
2024-01-12T01:48:44.469Z,28.1444
2024-01-12T01:49:47.695Z,28.0937
2024-01-12T01:50:51.266Z,28.0440
2024-01-12T01:51:54.068Z,28.0826
2024-01-12T01:52:57.275Z,28.0648
2024-01-12T01:54:00.549Z,28.0319
2024-01-12T01:55:03.704Z,28.0111
2024-01-12T01:56:06.911Z,28.0336
2024-01-12T01:57:10.474Z,28.1460
2024-01-12T01:58:13.325Z,28.1813
2024-01-12T01:59:16.581Z,28.1346
2024-01-12T02:00:19.745Z,28.1715
2024-01-12T02:01:22.938Z,28.1613
2024-01-12T02:02:26.210Z,28.0945
2024-01-12T02:03:29.719Z,28.0927
2024-01-12T02:04:32.554Z,28.0703
2024-01-12T02:05:35.909Z,28.0622
2024-01-12T02:06:39.208Z,28.1222
2024-01-12T02:07:42.168Z,28.0707
2024-01-12T02:08:45.591Z,28.1340
2024-01-12T02:09:48.614Z,28.0887
2024-01-12T02:10:51.800Z,28.0299
2024-01-12T02:11:55.150Z,28.0237
2024-01-12T02:12:58.215Z,28.0094
2024-01-12T02:14:01.437Z,28.0056
2024-01-12T02:15:04.680Z,27.9795
2024-01-12T02:16:09.670Z,28.0441
2024-01-12T02:17:11.079Z,28.1529
2024-01-12T02:18:14.490Z,28.1938
2024-01-12T02:19:17.499Z,28.2009
2024-01-12T02:20:20.733Z,28.1472
2024-01-12T02:21:23.917Z,28.1511
2024-01-12T02:22:27.122Z,28.1346
2024-01-12T02:23:30.359Z,28.0967
2024-01-12T02:24:33.527Z,28.0674
2024-01-12T02:25:36.760Z,28.0511
2024-01-12T02:26:39.980Z,28.0570
2024-01-12T02:27:43.185Z,28.1441
2024-01-12T02:28:46.459Z,28.1827
2024-01-12T02:29:49.720Z,28.1696
2024-01-12T02:30:52.923Z,28.1553
2024-01-12T02:31:56.074Z,28.1023
2024-01-12T02:32:59.387Z,28.0661
2024-01-12T02:34:02.603Z,28.0437
2024-01-12T02:35:05.699Z,28.0724
2024-01-12T02:36:08.902Z,28.1005
2024-01-12T02:37:12.139Z,28.1158
2024-01-12T02:38:15.355Z,28.0915
2024-01-12T02:39:18.549Z,28.0761
2024-01-12T02:40:21.748Z,28.0832
2024-01-12T02:41:24.982Z,28.0683
2024-01-12T02:42:28.151Z,28.0373
2024-01-12T02:43:31.385Z,28.0759
2024-01-12T02:44:34.627Z,28.0526
2024-01-12T02:45:37.780Z,28.0292
2024-01-12T02:46:40.999Z,28.0519
2024-01-12T02:47:44.383Z,28.0313
2024-01-12T02:48:47.492Z,28.0802
2024-01-12T02:49:50.637Z,28.0440
2024-01-12T02:50:53.906Z,27.9894
2024-01-12T02:51:57.044Z,27.9768
2024-01-12T02:53:00.257Z,27.9655
2024-01-12T02:54:03.575Z,27.9309
2024-01-12T02:55:06.664Z,28.0109
2024-01-12T02:56:09.871Z,28.0223
2024-01-12T02:57:13.208Z,28.0366
2024-01-12T02:58:16.291Z,28.0703
2024-01-12T02:59:19.525Z,28.1096
2024-01-12T03:00:22.747Z,28.0915
2024-01-12T03:01:25.913Z,28.0664
2024-01-12T03:02:29.215Z,28.0820
2024-01-12T03:03:32.417Z,28.0548
2024-01-12T03:04:35.555Z,28.0802
2024-01-12T03:05:38.781Z,28.1266
2024-01-12T03:06:41.985Z,28.1320
2024-01-12T03:07:45.137Z,28.0729
2024-01-12T03:08:48.376Z,28.1160
2024-01-12T03:09:51.572Z,28.1149
2024-01-12T03:10:54.767Z,28.0938
2024-01-12T03:11:58.022Z,28.0777
2024-01-12T03:13:01.174Z,28.0648
2024-01-12T03:14:04.381Z,28.0865
2024-01-12T03:15:07.616Z,28.1425
2024-01-12T03:16:10.804Z,28.1501
2024-01-12T03:17:14.064Z,28.1795
2024-01-12T03:18:17.302Z,28.2034
2024-01-12T03:19:20.617Z,28.2147
2024-01-12T03:20:23.691Z,28.2086
2024-01-12T03:21:26.826Z,28.2018
2024-01-12T03:22:30.035Z,28.1424
2024-01-12T03:23:33.282Z,28.0908
2024-01-12T03:24:36.451Z,28.0725
2024-01-12T03:25:39.655Z,28.0691
2024-01-12T03:26:42.934Z,28.1140
2024-01-12T03:27:46.053Z,28.1327
2024-01-12T03:28:49.279Z,28.1893
2024-01-12T03:29:52.506Z,28.1745
2024-01-12T03:30:55.771Z,28.1200
2024-01-12T03:31:58.891Z,28.1171
2024-01-12T03:33:02.250Z,28.1245
2024-01-12T03:34:05.491Z,28.1291
2024-01-12T03:35:08.510Z,28.0649
2024-01-12T03:36:11.738Z,28.0867
2024-01-12T03:37:14.928Z,28.0737
2024-01-12T03:38:18.210Z,28.0306
2024-01-12T03:39:21.363Z,28.0046
2024-01-12T03:40:24.560Z,27.9777
2024-01-12T03:41:27.800Z,28.0143
2024-01-12T03:42:30.981Z,27.9825
2024-01-12T03:43:34.194Z,27.9579
2024-01-12T03:44:37.425Z,27.9926
2024-01-12T03:45:40.596Z,28.0264
2024-01-12T03:46:43.814Z,28.0390
2024-01-12T03:47:47.058Z,28.0383
2024-01-12T03:48:50.392Z,28.0330
2024-01-12T03:49:53.423Z,28.0214
2024-01-12T03:50:56.726Z,28.0263
2024-01-12T03:52:14.370Z,28.0169
2024-01-12T03:53:04.060Z,28.0617
2024-01-12T03:54:06.303Z,28.1252
2024-01-12T03:55:09.468Z,28.1349
2024-01-12T03:56:12.680Z,28.1272
2024-01-12T03:57:15.938Z,28.1316
2024-01-12T03:58:19.096Z,28.1728
2024-01-12T03:59:22.318Z,28.1829
2024-01-12T04:00:25.530Z,28.1587
2024-01-12T04:01:28.730Z,28.1553
2024-01-12T04:02:31.986Z,28.1561
2024-01-12T04:03:35.157Z,28.0993
2024-01-12T04:04:38.343Z,28.1103
2024-01-12T04:05:41.596Z,28.1036
2024-01-12T04:06:44.936Z,28.0222
2024-01-12T04:07:47.975Z,27.9802
2024-01-12T04:08:51.259Z,27.9699
2024-01-12T04:09:54.382Z,28.0006
2024-01-12T04:10:57.608Z,28.0127
2024-01-12T04:12:00.855Z,28.0614
2024-01-12T04:13:04.019Z,28.0872
2024-01-12T04:14:07.240Z,28.0991
2024-01-12T04:15:10.547Z,28.0609
2024-01-12T04:16:13.620Z,27.9962
2024-01-12T04:17:16.883Z,27.9915
2024-01-12T04:18:20.231Z,28.0011
2024-01-12T04:19:23.285Z,28.0853
2024-01-12T04:20:26.488Z,28.1246
2024-01-12T04:21:29.671Z,28.0880
2024-01-12T04:22:32.864Z,28.0719
2024-01-12T04:23:36.123Z,28.0827
2024-01-12T04:24:39.304Z,28.0951
2024-01-12T04:25:42.544Z,28.0722
2024-01-12T04:26:45.780Z,28.0961
2024-01-12T04:27:48.903Z,28.0587
2024-01-12T04:28:52.124Z,27.9872
2024-01-12T04:29:55.554Z,27.9502
2024-01-12T04:30:58.554Z,27.9603
2024-01-12T04:32:01.764Z,28.0276
2024-01-12T04:33:05.172Z,28.0478
2024-01-12T04:34:08.245Z,28.0433
2024-01-12T04:35:11.362Z,28.0202
2024-01-12T04:36:14.591Z,28.0528
2024-01-12T04:37:17.781Z,28.0538
2024-01-12T04:38:21.034Z,28.0298
2024-01-12T04:39:24.206Z,28.0838
2024-01-12T04:40:27.369Z,28.1243
2024-01-12T04:41:30.587Z,28.0730
2024-01-12T04:42:33.792Z,28.0491
2024-01-12T04:43:37.024Z,28.0554
2024-01-12T04:44:40.260Z,28.0266
2024-01-12T04:45:44.199Z,28.0885
2024-01-12T04:46:47.007Z,28.0992
2024-01-12T04:47:49.894Z,28.0906
2024-01-12T04:48:53.147Z,28.0224
2024-01-12T04:49:56.305Z,28.0317
2024-01-12T04:50:59.557Z,28.0203
2024-01-12T04:52:02.675Z,27.9331
2024-01-12T04:53:05.857Z,27.9454
2024-01-12T04:54:09.091Z,27.9502
2024-01-12T04:55:12.299Z,27.9503
2024-01-12T04:56:15.540Z,27.9893
2024-01-12T04:57:18.687Z,28.0330
2024-01-12T04:58:21.897Z,27.9917
2024-01-12T04:59:25.132Z,28.0089
2024-01-12T05:00:28.570Z,28.0421
2024-01-12T05:01:31.541Z,28.0708
2024-01-12T05:02:34.799Z,28.0829
2024-01-12T05:03:37.985Z,28.0827
2024-01-12T05:04:41.161Z,28.0863
2024-01-12T05:05:44.597Z,28.0952
2024-01-12T05:06:47.619Z,28.0860
2024-01-12T05:07:50.779Z,28.0647
2024-01-12T05:08:54.037Z,28.0584
2024-01-12T05:09:57.220Z,28.0942
2024-01-12T05:11:00.427Z,28.0719
2024-01-12T05:12:03.677Z,28.0692
2024-01-12T05:13:06.849Z,28.0804
2024-01-12T05:14:10.023Z,28.0658
2024-01-12T05:15:13.323Z,28.0759
2024-01-12T05:16:16.449Z,28.1136
2024-01-12T05:17:19.729Z,28.0892
2024-01-12T05:18:23.027Z,28.0351
2024-01-12T05:19:26.183Z,27.9546
2024-01-12T05:20:29.311Z,27.9069
2024-01-12T05:21:32.512Z,27.9077
2024-01-12T05:22:35.699Z,27.9637
2024-01-12T05:23:38.921Z,27.9726
2024-01-12T05:24:42.115Z,27.9245
2024-01-12T05:25:45.329Z,27.8887
2024-01-12T05:26:48.594Z,27.9125
2024-01-12T05:27:51.741Z,27.9778
2024-01-12T05:28:54.957Z,28.0386
2024-01-12T05:30:01.617Z,28.0511
2024-01-12T05:31:02.469Z,28.0033
2024-01-12T05:32:04.592Z,28.0676
2024-01-12T05:33:07.851Z,28.0020
2024-01-12T05:34:11.128Z,27.9249
2024-01-12T05:35:16.128Z,27.9214
2024-01-12T05:36:17.399Z,27.9732
2024-01-12T05:37:20.620Z,28.0366
2024-01-12T05:38:23.847Z,28.0831
2024-01-12T05:39:27.022Z,28.0557
2024-01-12T05:40:30.222Z,27.9957
2024-01-12T05:41:33.486Z,28.0235
2024-01-12T05:42:36.669Z,28.0006
2024-01-12T05:43:39.853Z,28.0013
2024-01-12T05:44:43.054Z,27.9427
2024-01-12T05:45:46.256Z,27.9435
2024-01-12T05:46:49.462Z,27.9501
2024-01-12T05:47:52.744Z,27.9151
2024-01-12T05:48:55.946Z,27.8437
2024-01-12T05:49:59.146Z,27.8331
2024-01-12T05:51:02.341Z,27.8832
2024-01-12T05:52:05.484Z,27.9143
2024-01-12T05:53:08.710Z,27.8829
2024-01-12T05:54:11.956Z,27.8654
2024-01-12T05:55:15.144Z,27.9567
2024-01-12T05:56:18.348Z,27.9226
2024-01-12T05:57:21.516Z,27.9075
2024-01-12T05:58:24.731Z,27.9399
2024-01-12T05:59:27.975Z,28.0466
2024-01-12T06:00:31.134Z,27.9865
2024-01-12T06:01:34.353Z,28.0189
2024-01-12T06:02:37.610Z,28.0302
2024-01-12T06:03:40.837Z,27.9959
2024-01-12T06:04:44.026Z,28.0418
2024-01-12T06:05:47.405Z,28.0396
2024-01-12T06:06:50.385Z,28.0836
2024-01-12T06:07:53.602Z,28.0560
2024-01-12T06:08:56.940Z,28.0420
2024-01-12T06:10:00.012Z,28.0724
2024-01-12T06:11:03.232Z,28.0567
2024-01-12T06:12:06.456Z,28.0798
2024-01-12T06:13:09.633Z,28.0945
2024-01-12T06:14:12.868Z,28.1292
2024-01-12T06:15:16.098Z,28.1117
2024-01-12T06:16:19.257Z,28.1958
2024-01-12T06:17:22.497Z,28.1698
2024-01-12T06:18:25.889Z,28.1776
2024-01-12T06:19:28.963Z,28.1670
2024-01-12T06:20:32.131Z,28.1575
2024-01-12T06:21:36.858Z,28.1074
2024-01-12T06:22:38.504Z,28.1338
2024-01-12T06:23:41.748Z,28.1107
2024-01-12T06:24:44.926Z,28.0833
2024-01-12T06:25:48.123Z,28.0948
2024-01-12T06:26:51.430Z,28.0844
2024-01-12T06:27:54.540Z,28.0257
2024-01-12T06:28:57.753Z,28.0397
2024-01-12T06:30:01.179Z,28.0547
2024-01-12T06:31:04.235Z,28.0944
2024-01-12T06:32:07.501Z,27.9991
2024-01-12T06:33:10.640Z,27.9949
2024-01-12T06:34:13.849Z,27.9714
2024-01-12T06:35:17.085Z,28.0053
2024-01-12T06:36:20.209Z,27.9920
2024-01-12T06:37:23.422Z,28.0317
2024-01-12T06:38:26.730Z,28.1203
2024-01-12T06:39:29.935Z,28.1877
2024-01-12T06:40:33.134Z,28.2004
2024-01-12T06:41:36.333Z,28.2507
2024-01-12T06:42:39.533Z,28.2424
2024-01-12T06:43:42.821Z,28.1933
2024-01-12T06:44:45.996Z,28.1239
2024-01-12T06:45:49.192Z,28.0403
2024-01-12T06:46:52.360Z,28.0658
2024-01-12T06:47:55.677Z,28.1466
2024-01-12T06:48:58.898Z,28.1621
2024-01-12T06:50:01.989Z,28.1187
2024-01-12T06:51:05.315Z,28.0842
2024-01-12T06:52:08.422Z,28.1026
2024-01-12T06:53:11.628Z,28.1431
2024-01-12T06:54:16.409Z,28.1570
2024-01-12T06:55:18.056Z,28.1968
2024-01-12T06:56:21.287Z,28.1743
2024-01-12T06:57:24.466Z,28.1378
2024-01-12T06:58:27.660Z,28.1370
2024-01-12T06:59:30.924Z,28.1405
2024-01-12T07:00:34.090Z,28.1161
2024-01-12T07:01:37.341Z,28.1883
2024-01-12T07:02:40.552Z,28.2323
2024-01-12T07:03:43.748Z,28.2188
2024-01-12T07:04:46.918Z,28.2231
2024-01-12T07:05:50.278Z,28.1612
2024-01-12T07:06:53.414Z,28.1419
2024-01-12T07:07:56.537Z,28.1234
2024-01-12T07:08:59.788Z,28.1264
2024-01-12T07:10:02.957Z,28.1021
2024-01-12T07:11:06.166Z,28.0716
2024-01-12T07:12:09.444Z,28.1009
2024-01-12T07:13:12.582Z,28.1309
2024-01-12T07:14:15.854Z,28.1460
2024-01-12T07:15:18.997Z,28.1813
2024-01-12T07:16:22.211Z,28.1468
2024-01-12T07:17:25.584Z,28.1545
2024-01-12T07:18:28.730Z,28.2177
2024-01-12T07:19:31.900Z,28.1494
2024-01-12T07:20:35.133Z,28.1376
2024-01-12T07:21:38.322Z,28.2062
2024-01-12T07:22:41.478Z,28.2351
2024-01-12T07:23:44.753Z,28.2667
2024-01-12T07:24:47.872Z,28.2519
2024-01-12T07:25:51.087Z,28.2106
2024-01-12T07:26:54.313Z,28.2110
2024-01-12T07:27:57.529Z,28.1684
2024-01-12T07:29:00.704Z,28.1096
2024-01-12T07:30:04.021Z,28.1160
2024-01-12T07:31:07.163Z,28.0869
2024-01-12T07:32:10.330Z,28.1729
2024-01-12T07:33:13.633Z,28.1711
2024-01-12T07:34:16.785Z,28.1847
2024-01-12T07:35:19.952Z,28.1642
2024-01-12T07:36:23.143Z,28.1775
2024-01-12T07:37:26.347Z,28.2043
2024-01-12T07:38:29.569Z,28.1838
2024-01-12T07:39:32.766Z,28.1940
2024-01-12T07:40:36.278Z,28.2335
2024-01-12T07:41:39.188Z,28.3178
2024-01-12T07:42:42.415Z,28.3470
2024-01-12T07:43:45.589Z,28.3252
2024-01-12T07:44:48.820Z,28.2288
2024-01-12T07:45:52.010Z,28.1992
2024-01-12T07:46:55.214Z,28.2430
2024-01-12T07:47:58.558Z,28.1898
2024-01-12T07:49:01.778Z,28.1462
2024-01-12T07:50:04.900Z,28.1641
2024-01-12T07:51:08.123Z,28.1623
2024-01-12T07:52:15.578Z,28.1899
2024-01-12T07:53:16.042Z,28.2075
2024-01-12T07:54:17.700Z,28.1658
2024-01-12T07:55:20.913Z,28.1837
2024-01-12T07:56:24.108Z,28.2407
2024-01-12T07:57:27.306Z,28.2317
2024-01-12T07:58:31.706Z,28.2824
2024-01-12T07:59:33.806Z,28.2391
2024-01-12T08:00:36.930Z,28.2158
2024-01-12T08:01:40.152Z,28.1903
2024-01-12T08:02:43.358Z,28.2020
2024-01-12T08:03:46.542Z,28.2245
2024-01-12T08:04:49.795Z,28.2634
2024-01-12T08:05:53.057Z,28.3130
2024-01-12T08:06:56.443Z,28.3848
2024-01-12T08:07:59.404Z,28.3674
2024-01-12T08:09:02.604Z,28.2786
2024-01-12T08:10:05.804Z,28.2494
2024-01-12T08:11:19.032Z,28.2024
2024-01-12T08:12:13.296Z,28.2401
2024-01-12T08:13:16.211Z,28.2742
2024-01-12T08:14:18.650Z,28.2702
2024-01-12T08:15:21.863Z,28.2521
2024-01-12T08:16:25.071Z,28.2759
2024-01-12T08:17:28.326Z,28.2379
2024-01-12T08:18:31.506Z,28.1593
2024-01-12T08:19:34.680Z,28.1554
2024-01-12T08:20:38.024Z,28.2585
2024-01-12T08:21:49.109Z,28.2934
2024-01-12T08:22:45.422Z,28.3041
2024-01-12T08:23:47.546Z,28.2600
2024-01-12T08:24:50.722Z,28.2714
2024-01-12T08:25:53.951Z,28.3636
2024-01-12T08:26:57.189Z,28.3970
2024-01-12T08:28:00.367Z,28.3036
2024-01-12T08:29:03.598Z,28.3579
2024-01-12T08:30:06.912Z,28.3440
2024-01-12T08:31:10.061Z,28.2770
2024-01-12T08:32:13.206Z,28.1752
2024-01-12T08:33:16.467Z,28.1655
2024-01-12T08:34:19.827Z,28.0642
2024-01-12T08:35:22.963Z,28.0216
2024-01-12T08:36:26.087Z,28.0026
2024-01-12T08:37:29.243Z,28.1065
2024-01-12T08:38:32.468Z,28.2620
2024-01-12T08:39:35.645Z,28.2741
2024-01-12T08:40:38.878Z,28.2344
2024-01-12T08:41:42.154Z,28.1869
2024-01-12T08:42:45.272Z,28.1589
2024-01-12T08:43:48.490Z,28.1954
2024-01-12T08:44:51.722Z,28.2871
2024-01-12T08:45:54.896Z,28.2444
2024-01-12T08:46:58.131Z,28.1472
2024-01-12T08:48:01.435Z,28.1467
2024-01-12T08:49:04.601Z,28.2398
2024-01-12T08:50:07.796Z,28.2936
2024-01-12T08:51:11.583Z,28.3090
2024-01-12T08:52:14.170Z,28.2952
2024-01-12T08:53:17.397Z,28.2820
2024-01-12T08:54:20.559Z,28.2013
2024-01-12T08:55:23.753Z,28.2279
2024-01-12T08:56:26.980Z,28.2295
2024-01-12T08:57:30.190Z,28.1462
2024-01-12T08:58:35.521Z,28.1286
2024-01-12T08:59:36.598Z,28.1310
2024-01-12T09:00:39.834Z,28.1778
2024-01-12T09:01:43.006Z,28.1251
2024-01-12T09:02:46.303Z,28.0872
2024-01-12T09:03:51.661Z,28.0197
2024-01-12T09:04:54.112Z,27.9445
2024-01-12T09:05:56.809Z,27.9946
2024-01-12T09:06:59.399Z,28.0561
2024-01-12T09:08:02.257Z,28.1013
2024-01-12T09:09:05.612Z,28.1482
2024-01-12T09:10:08.681Z,28.2060
2024-01-12T09:11:11.890Z,28.1546
2024-01-12T09:12:15.163Z,28.0708
2024-01-12T09:13:18.331Z,28.0471
2024-01-12T09:14:21.521Z,28.0492
2024-01-12T09:15:24.709Z,27.9915
2024-01-12T09:16:27.960Z,27.9360
2024-01-12T09:17:31.196Z,27.9689
2024-01-12T09:18:34.495Z,28.0177
2024-01-12T09:19:37.623Z,28.0775
2024-01-12T09:20:40.819Z,28.0958
2024-01-12T09:21:43.940Z,28.1445
2024-01-12T09:22:47.160Z,28.1394
2024-01-12T09:23:50.367Z,28.1331
2024-01-12T09:24:53.563Z,28.1190
2024-01-12T09:25:56.795Z,28.1153
2024-01-12T09:27:00.125Z,28.1671
2024-01-12T09:28:03.178Z,28.1996
2024-01-12T09:29:06.398Z,28.1466
2024-01-12T09:30:09.765Z,28.1504
2024-01-12T09:31:12.975Z,28.1465
2024-01-12T09:32:15.970Z,28.1479
2024-01-12T09:33:19.245Z,28.1370
2024-01-12T09:34:22.572Z,28.1660
2024-01-12T09:35:25.628Z,28.1327
2024-01-12T09:36:28.787Z,28.1272
2024-01-12T09:37:32.000Z,28.1627
2024-01-12T09:38:35.233Z,28.1633
2024-01-12T09:39:38.433Z,28.1541
2024-01-12T09:40:41.623Z,28.1708
2024-01-12T09:41:44.901Z,28.1110
2024-01-12T09:42:48.033Z,28.0472
2024-01-12T09:43:51.222Z,28.0971
2024-01-12T09:44:59.681Z,28.2108
2024-01-12T09:46:00.005Z,28.2553
2024-01-12T09:47:01.642Z,28.1927
2024-01-12T09:48:04.241Z,28.1448
2024-01-12T09:49:07.359Z,28.2324
2024-01-12T09:50:10.493Z,28.3063
2024-01-12T09:51:13.745Z,28.3404
2024-01-12T09:52:16.888Z,28.2967
2024-01-12T09:53:20.102Z,28.2739
2024-01-12T09:54:23.287Z,28.2630
2024-01-12T09:55:26.768Z,28.3039
2024-01-12T09:56:39.318Z,28.3089
2024-01-12T09:57:33.988Z,28.2732
2024-01-12T09:58:36.123Z,28.2401
2024-01-12T09:59:39.377Z,28.1626
2024-01-12T10:00:42.700Z,28.1809
2024-01-12T10:01:45.742Z,28.2385
2024-01-12T10:02:48.976Z,28.2923
2024-01-12T10:03:52.187Z,28.2621
2024-01-12T10:04:55.372Z,28.2227
2024-01-12T10:05:58.694Z,28.2046
2024-01-12T10:07:01.807Z,28.2106
2024-01-12T10:08:04.990Z,28.1854
2024-01-12T10:09:08.375Z,28.2609
2024-01-12T10:10:11.409Z,28.2656
2024-01-12T10:11:14.618Z,28.2524
2024-01-12T10:12:17.802Z,28.2443
2024-01-12T10:13:21.007Z,28.2325
2024-01-12T10:14:24.262Z,28.2198
2024-01-12T10:15:27.425Z,28.2817
2024-01-12T10:16:30.681Z,28.2907
2024-01-12T10:17:34.034Z,28.1838
2024-01-12T10:18:38.110Z,28.1237
2024-01-12T10:19:40.382Z,28.1234
2024-01-12T10:20:43.492Z,28.2318
2024-01-12T10:21:46.667Z,28.2748
2024-01-12T10:22:49.854Z,28.3080
2024-01-12T10:23:53.129Z,28.3194
2024-01-12T10:24:56.282Z,28.2506
2024-01-12T10:25:59.491Z,28.2056
2024-01-12T10:27:02.724Z,28.1863
2024-01-12T10:28:05.891Z,28.1759
2024-01-12T10:29:09.112Z,28.1752
2024-01-12T10:30:12.481Z,28.1690
2024-01-12T10:31:15.621Z,28.1852
2024-01-12T10:32:18.743Z,28.1062
2024-01-12T10:33:22.121Z,28.1028
2024-01-12T10:34:25.164Z,28.0941
2024-01-12T10:35:28.535Z,28.1250
2024-01-12T10:36:31.521Z,28.1271
2024-01-12T10:37:34.731Z,28.0698
2024-01-12T10:38:37.996Z,28.1447
2024-01-12T10:39:41.149Z,28.1094
2024-01-12T10:40:44.337Z,28.1561
2024-01-12T10:41:47.606Z,28.1303
2024-01-12T10:42:50.765Z,28.1178
2024-01-12T10:43:53.987Z,28.1461
2024-01-12T10:44:57.154Z,28.1577
2024-01-12T10:46:00.387Z,28.1076
2024-01-12T10:47:03.642Z,28.1689
2024-01-12T10:48:07.000Z,28.1691
2024-01-12T10:49:10.255Z,28.1955
2024-01-12T10:50:13.269Z,28.2133
2024-01-12T10:51:16.514Z,28.1958
2024-01-12T10:52:20.865Z,28.1513
2024-01-12T10:53:22.917Z,28.1327
2024-01-12T10:54:26.079Z,28.2603
2024-01-12T10:55:29.292Z,28.2676
2024-01-12T10:56:32.526Z,28.2633
2024-01-12T10:57:35.801Z,28.2446
2024-01-12T10:58:38.946Z,28.2151
2024-01-12T10:59:42.167Z,28.1935
2024-01-12T11:00:45.975Z,28.2243
2024-01-12T11:01:48.531Z,28.2453
2024-01-12T11:02:51.780Z,28.2467
2024-01-12T11:03:55.040Z,28.2858
2024-01-12T11:04:58.148Z,28.2338
2024-01-12T11:06:01.522Z,28.1852
2024-01-12T11:07:04.676Z,28.1694
2024-01-12T11:08:07.922Z,28.2088
2024-01-12T11:09:11.036Z,28.2262
2024-01-12T11:10:14.257Z,28.2326
2024-01-12T11:11:17.376Z,28.2336
2024-01-12T11:12:20.585Z,28.1232
2024-01-12T11:13:23.800Z,28.2086
2024-01-12T11:14:27.028Z,28.2588
2024-01-12T11:15:30.210Z,28.2360
2024-01-12T11:16:33.425Z,28.2171
2024-01-12T11:17:36.758Z,28.2274
2024-01-12T11:18:42.276Z,28.2085
2024-01-12T11:19:43.155Z,28.1987
2024-01-12T11:20:46.278Z,28.1559
2024-01-12T11:21:49.426Z,28.1432
2024-01-12T11:22:52.650Z,28.1227
2024-01-12T11:23:55.881Z,28.1311
2024-01-12T11:24:59.108Z,28.2025
2024-01-12T11:26:02.258Z,28.1783
2024-01-12T11:27:05.500Z,28.1140
2024-01-12T11:28:08.653Z,28.1466
2024-01-12T11:29:11.862Z,28.1896
2024-01-12T11:30:17.089Z,28.2161
2024-01-12T11:31:18.311Z,28.2445
2024-01-12T11:32:21.533Z,28.2953
2024-01-12T11:33:24.813Z,28.3536
2024-01-12T11:34:27.989Z,28.3430
2024-01-12T11:35:31.267Z,28.3261
2024-01-12T11:36:34.295Z,28.3054
2024-01-12T11:37:37.517Z,28.2940
2024-01-12T11:38:40.758Z,28.2648
2024-01-12T11:39:43.913Z,28.3067
2024-01-12T11:40:47.146Z,28.3484
2024-01-12T11:41:50.338Z,28.3425
2024-01-12T11:42:53.584Z,28.2963
2024-01-12T11:43:56.728Z,28.2946
2024-01-12T11:45:00.018Z,28.3316
2024-01-12T11:46:03.170Z,28.3205
2024-01-12T11:47:06.361Z,28.3068
2024-01-12T11:48:09.739Z,28.3209
2024-01-12T11:49:12.894Z,28.2837
2024-01-12T11:50:15.962Z,28.2897
2024-01-12T11:51:19.181Z,28.2804
2024-01-12T11:52:22.369Z,28.2784
2024-01-12T11:53:25.649Z,28.2907
2024-01-12T11:54:28.782Z,28.2919
2024-01-12T11:55:31.981Z,28.3681
2024-01-12T11:56:35.244Z,28.4105
2024-01-12T11:57:38.410Z,28.4431
2024-01-12T11:58:41.596Z,28.4297
2024-01-12T11:59:45.799Z,28.3884
2024-01-12T12:00:48.033Z,28.3498
2024-01-12T12:01:51.239Z,28.2973
2024-01-12T12:02:57.368Z,28.3345
2024-01-12T12:03:57.630Z,28.4234
2024-01-12T12:05:00.963Z,28.4313
2024-01-12T12:06:04.065Z,28.3586
2024-01-12T12:07:07.526Z,28.3115
2024-01-12T12:08:11.316Z,28.3045
2024-01-12T12:09:13.739Z,28.2853
2024-01-12T12:10:19.631Z,28.2729
2024-01-12T12:11:20.086Z,28.2581
2024-01-12T12:12:23.281Z,28.2883
2024-01-12T12:13:26.484Z,28.2722
2024-01-12T12:14:29.675Z,28.3444
2024-01-12T12:15:32.909Z,28.4486
2024-01-12T12:16:36.084Z,28.4464
2024-01-12T12:17:39.574Z,28.4243
2024-01-12T12:18:42.630Z,28.4195
2024-01-12T12:19:45.890Z,28.3931
2024-01-12T12:20:48.990Z,28.3546
2024-01-12T12:21:52.129Z,28.3011
2024-01-12T12:22:55.358Z,28.3270
2024-01-12T12:23:58.543Z,28.2968
2024-01-12T12:25:01.726Z,28.2272
2024-01-12T12:26:04.937Z,28.2069
2024-01-12T12:27:08.171Z,28.2759
2024-01-12T12:28:11.358Z,28.2880
2024-01-12T12:29:14.554Z,28.2573
2024-01-12T12:30:18.043Z,28.2059
2024-01-12T12:31:20.978Z,28.1407
2024-01-12T12:32:24.207Z,28.1455
2024-01-12T12:33:27.631Z,28.2067
2024-01-12T12:34:30.655Z,28.2977
2024-01-12T12:35:33.803Z,28.4339
2024-01-12T12:36:36.973Z,28.4784
2024-01-12T12:37:40.193Z,28.4890
2024-01-12T12:38:43.431Z,28.4882
2024-01-12T12:39:46.597Z,28.4517
2024-01-12T12:40:49.796Z,28.3824
2024-01-12T12:41:53.018Z,28.3262
2024-01-12T12:42:56.199Z,28.3509
2024-01-12T12:43:59.434Z,28.4168